createdAt,value
2019-04-04T00:00:31.182Z,55.13
2019-04-04T00:01:31.262Z,55.84
2019-04-04T00:02:31.159Z,55.84
2019-04-04T00:03:31.148Z,55.63
2019-04-04T00:04:31.134Z,55.74
2019-04-04T00:05:31.117Z,55.63
2019-04-04T00:06:31.225Z,55.74
2019-04-04T00:07:31.105Z,55.63
2019-04-04T00:08:31.794Z,55.74
2019-04-04T00:09:33.222Z,55.63
2019-04-04T00:10:31.069Z,55.13
2019-04-04T00:11:31.081Z,55.26
2019-04-04T00:12:31.598Z,55.22
2019-04-04T00:13:31.053Z,55.74
2019-04-04T00:14:31.113Z,55.87
2019-04-04T00:15:31.016Z,55.53
2019-04-04T00:16:31.133Z,55.97
2019-04-04T00:17:30.994Z,55.66
2019-04-04T00:18:30.975Z,55.76
2019-04-04T00:19:30.961Z,56.37
2019-04-04T00:20:31.843Z,56.91
2019-04-04T00:21:31.985Z,56.60
2019-04-04T00:22:31.031Z,56.30
2019-04-04T00:23:30.932Z,56.48
2019-04-04T00:24:30.936Z,56.27
2019-04-04T00:25:30.933Z,56.81
2019-04-04T00:26:30.972Z,56.81
2019-04-04T00:27:30.973Z,56.81
2019-04-04T00:28:30.864Z,56.60
2019-04-04T00:29:30.854Z,57.01
2019-04-04T00:30:30.831Z,56.91
2019-04-04T00:31:30.831Z,56.60
2019-04-04T00:32:31.008Z,56.91
2019-04-04T00:33:30.808Z,56.60
2019-04-04T00:34:30.800Z,56.81
2019-04-04T00:35:31.000Z,57.21
2019-04-04T00:36:33.750Z,56.91
2019-04-04T00:37:30.771Z,56.91
2019-04-04T00:38:30.906Z,56.71
2019-04-04T00:39:30.755Z,57.04
2019-04-04T00:40:30.721Z,57.45
2019-04-04T00:41:30.745Z,57.65
2019-04-04T00:42:30.710Z,57.86
2019-04-04T00:43:30.698Z,57.98
2019-04-04T00:44:30.746Z,58.19
2019-04-04T00:45:30.672Z,57.88
2019-04-04T00:46:30.997Z,57.88
2019-04-04T00:47:32.410Z,57.91
2019-04-04T00:48:32.249Z,58.19
2019-04-04T00:49:30.737Z,58.19
2019-04-04T00:50:30.615Z,58.22
2019-04-04T00:51:30.598Z,59.23
2019-04-04T00:52:30.604Z,58.83
2019-04-04T00:53:30.580Z,58.93
2019-04-04T00:54:30.671Z,58.80
2019-04-04T00:55:30.563Z,58.62
2019-04-04T00:56:30.567Z,59.23
2019-04-04T00:57:30.540Z,59.23
2019-04-04T00:58:30.565Z,58.73
2019-04-04T00:59:30.518Z,58.73
2019-04-04T01:00:30.912Z,58.22
2019-04-04T01:01:30.497Z,58.60
2019-04-04T01:02:30.490Z,58.83
2019-04-04T01:03:30.736Z,58.93
2019-04-04T01:04:31.211Z,58.93
2019-04-04T01:05:32.024Z,58.73
2019-04-04T01:06:33.477Z,58.22
2019-04-04T01:07:30.424Z,58.32
2019-04-04T01:08:30.419Z,58.32
2019-04-04T01:09:30.398Z,58.11
2019-04-04T01:10:30.392Z,58.73
2019-04-04T01:11:30.481Z,58.62
2019-04-04T01:12:30.373Z,59.03
2019-04-04T01:13:30.366Z,58.83
2019-04-04T01:14:30.345Z,58.93
2019-04-04T01:15:31.292Z,58.83
2019-04-04T01:16:33.345Z,58.86
2019-04-04T01:17:30.545Z,59.23
2019-04-04T01:18:30.297Z,58.83
2019-04-04T01:19:30.310Z,59.14
2019-04-04T01:20:30.274Z,59.34
2019-04-04T01:21:30.268Z,58.93
2019-04-04T01:22:30.255Z,58.83
2019-04-04T01:23:30.428Z,58.93
2019-04-04T01:24:30.239Z,59.34
2019-04-04T01:25:32.662Z,59.27
2019-04-04T01:26:30.222Z,59.37
2019-04-04T01:27:30.201Z,59.37
2019-04-04T01:28:30.211Z,59.37
2019-04-04T01:29:30.252Z,59.67
2019-04-04T01:30:30.462Z,59.37
2019-04-04T01:31:30.164Z,59.47
2019-04-04T01:32:30.180Z,59.67
2019-04-04T01:33:30.132Z,59.19
2019-04-04T01:34:30.252Z,59.80
2019-04-04T01:35:30.220Z,59.88
2019-04-04T01:36:30.110Z,59.78
2019-04-04T01:37:30.114Z,59.80
2019-04-04T01:38:30.088Z,60.11
2019-04-04T01:39:31.331Z,60.21
2019-04-04T01:40:32.954Z,60.21
2019-04-04T01:41:30.062Z,60.11
2019-04-04T01:42:30.043Z,60.03
2019-04-04T01:43:30.034Z,60.62
2019-04-04T01:44:30.020Z,60.24
2019-04-04T01:45:30.007Z,60.65
2019-04-04T01:46:30.054Z,60.75
2019-04-04T01:47:30.013Z,60.75
2019-04-04T01:48:29.970Z,61.16
2019-04-04T01:49:29.960Z,61.47
2019-04-04T01:50:30.049Z,61.77
2019-04-04T01:51:29.966Z,61.16
2019-04-04T01:52:50.975Z,61.06
2019-04-04T01:53:30.211Z,61.26
2019-04-04T01:54:32.003Z,61.06
2019-04-04T01:55:29.897Z,61.47
2019-04-04T01:56:29.978Z,61.36
2019-04-04T01:57:29.880Z,61.47
2019-04-04T01:58:30.055Z,61.16
2019-04-04T01:59:29.857Z,61.26
2019-04-04T02:00:29.835Z,61.19
2019-04-04T02:01:30.287Z,60.88
2019-04-04T02:02:29.824Z,61.50
2019-04-04T02:03:29.811Z,61.47
2019-04-04T02:04:30.088Z,61.77
2019-04-04T02:05:29.795Z,61.98
2019-04-04T02:06:29.785Z,61.50
2019-04-04T02:07:30.427Z,62.01
2019-04-04T02:08:31.408Z,62.01
2019-04-04T02:09:29.823Z,61.40
2019-04-04T02:10:29.733Z,62.11
2019-04-04T02:11:29.733Z,62.42
2019-04-04T02:12:29.703Z,62.76
2019-04-04T02:13:29.691Z,62.24
2019-04-04T02:14:29.769Z,62.55
2019-04-04T02:15:29.671Z,62.55
2019-04-04T02:16:29.704Z,62.35
2019-04-04T02:17:29.677Z,62.96
2019-04-04T02:18:29.638Z,62.96
2019-04-04T02:19:29.718Z,62.76
2019-04-04T02:20:29.715Z,62.65
2019-04-04T02:21:29.690Z,62.55
2019-04-04T02:22:30.934Z,62.58
2019-04-04T02:23:31.480Z,62.96
2019-04-04T02:24:29.846Z,62.78
2019-04-04T02:25:29.562Z,62.99
2019-04-04T02:26:29.636Z,62.99
2019-04-04T02:27:29.559Z,63.09
2019-04-04T02:28:29.544Z,62.96
2019-04-04T02:29:29.529Z,63.29
2019-04-04T02:30:29.506Z,63.09
2019-04-04T02:31:29.494Z,63.40
2019-04-04T02:32:29.587Z,63.70
2019-04-04T02:33:32.200Z,63.32
2019-04-04T02:34:29.472Z,63.29
2019-04-04T02:35:29.455Z,63.70
2019-04-04T02:36:29.490Z,64.01
2019-04-04T02:37:29.538Z,63.91
2019-04-04T02:38:29.437Z,64.12
2019-04-04T02:39:29.413Z,63.70
2019-04-04T02:40:29.441Z,63.81
2019-04-04T02:41:29.380Z,63.60
2019-04-04T02:42:29.376Z,63.60
2019-04-04T02:43:29.452Z,63.43
2019-04-04T02:44:31.705Z,63.64
2019-04-04T02:45:29.357Z,63.73
2019-04-04T02:46:29.327Z,63.91
2019-04-04T02:47:29.321Z,64.04
2019-04-04T02:48:29.399Z,63.84
2019-04-04T02:49:29.628Z,64.25
2019-04-04T02:50:34.340Z,64.22
2019-04-04T02:51:30.367Z,64.12
2019-04-04T02:52:29.261Z,64.14
2019-04-04T02:53:29.282Z,64.12
2019-04-04T02:54:29.350Z,64.35
2019-04-04T02:55:31.039Z,64.04
2019-04-04T02:56:29.226Z,64.35
2019-04-04T02:57:29.235Z,64.14
2019-04-04T02:58:29.193Z,64.65
2019-04-04T02:59:29.197Z,64.65
2019-04-04T03:00:29.295Z,64.45
2019-04-04T03:01:31.794Z,64.14
2019-04-04T03:02:29.161Z,64.35
2019-04-04T03:03:29.144Z,64.56
2019-04-04T03:04:29.126Z,63.73
2019-04-04T03:05:29.244Z,64.35
2019-04-04T03:06:29.130Z,64.25
2019-04-04T03:07:30.944Z,64.86
2019-04-04T03:08:29.842Z,64.38
2019-04-04T03:09:29.072Z,65.30
2019-04-04T03:10:29.125Z,65.30
2019-04-04T03:11:29.143Z,65.51
2019-04-04T03:12:29.262Z,64.79
2019-04-04T03:13:32.169Z,65.07
2019-04-04T03:14:29.049Z,65.20
2019-04-04T03:15:29.006Z,64.28
2019-04-04T03:16:29.003Z,64.48
2019-04-04T03:17:31.944Z,64.45
2019-04-04T03:18:29.082Z,64.69
2019-04-04T03:19:28.967Z,64.69
2019-04-04T03:20:28.974Z,64.14
2019-04-04T03:21:28.974Z,64.35
2019-04-04T03:22:29.058Z,63.84
2019-04-04T03:23:32.942Z,64.04
2019-04-04T03:24:28.938Z,64.04
2019-04-04T03:25:28.927Z,63.94
2019-04-04T03:26:29.049Z,63.64
2019-04-04T03:27:28.913Z,64.14
2019-04-04T03:28:31.455Z,63.73
2019-04-04T03:29:29.552Z,63.64
2019-04-04T03:30:28.841Z,63.84
2019-04-04T03:31:36.121Z,63.94
2019-04-04T03:32:29.822Z,63.94
2019-04-04T03:33:31.964Z,63.73
2019-04-04T03:34:29.010Z,64.14
2019-04-04T03:35:29.535Z,64.14
2019-04-04T03:36:30.761Z,63.64
2019-04-04T03:37:28.771Z,64.14
2019-04-04T03:38:28.751Z,63.64
2019-04-04T03:39:28.839Z,64.14
2019-04-04T03:40:28.737Z,63.73
2019-04-04T03:41:30.644Z,63.32
2019-04-04T03:42:28.728Z,63.73
2019-04-04T03:43:28.712Z,64.14
2019-04-04T03:44:28.941Z,64.04
2019-04-04T03:45:28.677Z,63.97
2019-04-04T03:46:33.530Z,63.73
2019-04-04T03:47:29.722Z,64.38
2019-04-04T03:48:28.666Z,64.89
2019-04-04T03:49:28.703Z,64.89
2019-04-04T03:50:30.258Z,64.69
2019-04-04T03:51:28.633Z,64.59
2019-04-04T03:52:28.617Z,64.48
2019-04-04T03:53:28.585Z,64.59
2019-04-04T03:54:28.675Z,64.89
2019-04-04T03:55:28.800Z,64.28
2019-04-04T03:56:33.271Z,64.28
2019-04-04T03:57:29.542Z,64.48
2019-04-04T03:58:28.530Z,64.38
2019-04-04T03:59:29.520Z,64.20
2019-04-04T04:00:28.678Z,64.89
2019-04-04T04:01:28.532Z,64.89
2019-04-04T04:02:28.493Z,65.12
2019-04-04T04:03:28.488Z,65.00
2019-04-04T04:04:28.538Z,64.92
2019-04-04T04:05:33.939Z,64.69
2019-04-04T04:06:29.463Z,64.89
2019-04-04T04:07:28.430Z,65.12
2019-04-04T04:08:28.426Z,65.23
2019-04-04T04:09:28.517Z,64.51
2019-04-04T04:10:32.199Z,65.33
2019-04-04T04:11:28.388Z,64.61
2019-04-04T04:12:28.383Z,64.51
2019-04-04T04:13:28.562Z,64.41
2019-04-04T04:14:28.358Z,64.41
2019-04-04T04:15:30.303Z,65.12
2019-04-04T04:16:28.588Z,64.51
2019-04-04T04:17:28.329Z,64.82
2019-04-04T04:18:28.440Z,64.92
2019-04-04T04:19:30.911Z,64.92
2019-04-04T04:20:28.300Z,64.31
2019-04-04T04:21:28.279Z,64.72
2019-04-04T04:22:28.373Z,65.03
2019-04-04T04:23:28.313Z,64.72
2019-04-04T04:24:29.631Z,64.51
2019-04-04T04:25:28.266Z,64.72
2019-04-04T04:26:28.247Z,64.31
2019-04-04T04:27:28.299Z,64.51
2019-04-04T04:28:28.208Z,65.33
2019-04-04T04:29:29.889Z,65.23
2019-04-04T04:30:28.186Z,64.51
2019-04-04T04:31:28.191Z,64.72
2019-04-04T04:32:28.651Z,64.82
2019-04-04T04:33:29.293Z,64.92
2019-04-04T04:34:32.918Z,65.23
2019-04-04T04:35:29.139Z,64.82
2019-04-04T04:36:28.205Z,64.72
2019-04-04T04:37:28.106Z,65.03
2019-04-04T04:38:28.174Z,64.92
2019-04-04T04:39:28.080Z,65.03
2019-04-04T04:40:28.072Z,64.61
2019-04-04T04:41:30.190Z,64.72
2019-04-04T04:42:28.130Z,64.72
2019-04-04T04:43:32.155Z,64.41
2019-04-04T04:44:30.777Z,64.61
2019-04-04T04:45:28.013Z,65.12
2019-04-04T04:46:28.070Z,64.82
2019-04-04T04:47:27.992Z,64.82
2019-04-04T04:48:30.857Z,64.72
2019-04-04T04:49:27.972Z,65.64
2019-04-04T04:50:27.953Z,65.64
2019-04-04T04:51:27.948Z,65.77
2019-04-04T04:52:28.107Z,65.74
2019-04-04T04:53:27.920Z,65.88
2019-04-04T04:54:27.912Z,64.72
2019-04-04T04:55:28.213Z,64.82
2019-04-04T04:56:30.929Z,64.92
2019-04-04T04:57:30.065Z,64.72
2019-04-04T04:58:27.872Z,64.82
2019-04-04T04:59:27.870Z,65.03
2019-04-04T05:00:28.236Z,65.03
2019-04-04T05:01:27.871Z,65.23
2019-04-04T05:02:28.587Z,64.92
2019-04-04T05:03:27.850Z,64.82
2019-04-04T05:04:28.314Z,64.82
2019-04-04T05:05:31.104Z,64.82
2019-04-04T05:06:27.849Z,65.54
2019-04-04T05:07:27.790Z,64.51
2019-04-04T05:08:27.764Z,64.61
2019-04-04T05:09:27.748Z,65.03
2019-04-04T05:10:27.747Z,65.03
2019-04-04T05:11:27.734Z,64.61
2019-04-04T05:12:27.868Z,64.92
2019-04-04T05:13:28.878Z,64.31
2019-04-04T05:14:27.832Z,65.12
2019-04-04T05:15:27.671Z,64.72
2019-04-04T05:16:27.670Z,64.61
2019-04-04T05:17:27.767Z,64.07
2019-04-04T05:18:27.751Z,64.72
2019-04-04T05:19:27.653Z,64.20
2019-04-04T05:20:29.820Z,64.51
2019-04-04T05:21:28.934Z,64.38
2019-04-04T05:22:27.662Z,64.38
2019-04-04T05:23:27.698Z,63.66
2019-04-04T05:24:27.607Z,64.17
2019-04-04T05:25:30.872Z,63.73
2019-04-04T05:26:28.051Z,64.07
2019-04-04T05:27:27.569Z,63.76
2019-04-04T05:28:27.534Z,63.94
2019-04-04T05:29:27.660Z,64.04
2019-04-04T05:30:27.545Z,63.29
2019-04-04T05:31:27.555Z,63.02
2019-04-04T05:32:27.489Z,63.02
2019-04-04T05:33:28.469Z,62.99
2019-04-04T05:34:28.293Z,62.99
2019-04-04T05:35:27.590Z,63.09
2019-04-04T05:36:27.481Z,62.58
2019-04-04T05:37:27.729Z,62.78
2019-04-04T05:38:27.479Z,61.43
2019-04-04T05:39:27.571Z,62.24
2019-04-04T05:40:30.516Z,62.14
2019-04-04T05:41:28.045Z,62.21
2019-04-04T05:42:27.500Z,60.99
2019-04-04T05:43:27.556Z,61.40
2019-04-04T05:44:27.545Z,60.75
2019-04-04T05:45:27.732Z,60.85
2019-04-04T05:46:27.516Z,59.73
2019-04-04T05:47:27.483Z,59.91
2019-04-04T05:48:29.089Z,59.91
2019-04-04T05:49:27.866Z,58.86
2019-04-04T05:50:27.683Z,58.96
2019-04-04T05:51:27.616Z,58.34
2019-04-04T05:52:27.708Z,57.91
2019-04-04T05:53:29.873Z,57.81
2019-04-04T05:54:27.582Z,57.17
2019-04-04T05:55:27.476Z,56.86
2019-04-04T05:56:27.558Z,56.53
2019-04-04T05:57:27.706Z,55.58
2019-04-04T05:58:27.536Z,55.87
2019-04-04T05:59:27.460Z,54.21
2019-04-04T06:00:28.214Z,53.85
2019-04-04T06:01:27.436Z,52.71
2019-04-04T06:02:27.505Z,52.30
2019-04-04T06:03:27.618Z,51.69
2019-04-04T06:04:27.510Z,50.75
2019-04-04T06:05:27.909Z,50.52
2019-04-04T06:06:27.474Z,50.32
2019-04-04T06:07:27.390Z,49.56
2019-04-04T06:08:27.457Z,48.44
2019-04-04T06:09:27.779Z,48.19
2019-04-04T06:10:27.438Z,47.49
2019-04-04T06:11:27.472Z,47.77
2019-04-04T06:12:27.456Z,47.44
2019-04-04T06:13:27.594Z,46.08
2019-04-04T06:14:29.690Z,45.04
2019-04-04T06:15:28.009Z,45.55
2019-04-04T06:16:27.454Z,45.43
2019-04-04T06:17:27.836Z,43.89
2019-04-04T06:18:27.184Z,43.89
2019-04-04T06:19:27.413Z,43.46
2019-04-04T06:20:27.421Z,43.16
2019-04-04T06:21:27.414Z,42.88
2019-04-04T06:22:27.398Z,43.24
2019-04-04T06:23:27.711Z,42.09
2019-04-04T06:24:27.246Z,40.84
2019-04-04T06:25:28.288Z,39.72
2019-04-04T06:26:27.712Z,39.70
2019-04-04T06:27:26.888Z,38.85
2019-04-04T06:28:26.985Z,38.73
2019-04-04T06:29:27.662Z,37.01
2019-04-04T06:30:26.861Z,37.61
2019-04-04T06:31:30.664Z,37.08
2019-04-04T06:32:26.835Z,37.29
2019-04-04T06:33:27.218Z,35.86
2019-04-04T06:34:26.814Z,36.27
2019-04-04T06:35:26.790Z,35.93
2019-04-04T06:36:26.804Z,34.92
2019-04-04T06:37:26.775Z,34.71
2019-04-04T06:38:26.812Z,34.38
2019-04-04T06:39:27.181Z,33.86
2019-04-04T06:40:28.103Z,33.14
2019-04-04T06:41:28.145Z,32.93
2019-04-04T06:42:26.723Z,31.71
2019-04-04T06:43:26.835Z,32.11
2019-04-04T06:44:26.780Z,31.59
2019-04-04T06:45:29.599Z,32.44
2019-04-04T06:46:28.219Z,33.14
2019-04-04T06:47:26.679Z,32.31
2019-04-04T06:48:27.178Z,31.10
2019-04-04T06:49:28.832Z,31.48
2019-04-04T06:50:26.762Z,31.81
2019-04-04T06:51:26.665Z,31.48
2019-04-04T06:52:26.606Z,30.96
2019-04-04T06:53:26.624Z,30.65
2019-04-04T06:54:26.628Z,30.33
2019-04-04T06:55:28.743Z,30.63
2019-04-04T06:56:26.560Z,29.44
2019-04-04T06:57:26.556Z,30.85
2019-04-04T06:58:26.531Z,29.81
2019-04-04T06:59:26.543Z,29.28
2019-04-04T07:00:26.548Z,28.86
2019-04-04T07:01:26.663Z,27.55
2019-04-04T07:02:26.711Z,27.86
2019-04-04T07:03:27.939Z,27.45
2019-04-04T07:04:26.468Z,27.23
2019-04-04T07:05:26.460Z,27.17
2019-04-04T07:06:26.455Z,28.40
2019-04-04T07:07:26.699Z,28.58
2019-04-04T07:08:26.542Z,28.40
2019-04-04T07:09:26.404Z,28.08
2019-04-04T07:10:26.409Z,27.55
2019-04-04T07:11:26.389Z,27.67
2019-04-04T07:12:28.397Z,28.73
2019-04-04T07:13:27.976Z,29.01
2019-04-04T07:14:30.033Z,28.39
2019-04-04T07:15:27.463Z,27.65
2019-04-04T07:16:26.330Z,27.03
2019-04-04T07:17:26.600Z,26.29
2019-04-04T07:18:26.322Z,25.08
2019-04-04T07:19:26.348Z,24.16
2019-04-04T07:20:28.390Z,23.75
2019-04-04T07:21:26.277Z,23.84
2019-04-04T07:22:26.413Z,23.96
2019-04-04T07:23:28.341Z,24.98
2019-04-04T07:24:26.247Z,26.15
2019-04-04T07:25:26.230Z,26.63
2019-04-04T07:26:26.326Z,25.91
2019-04-04T07:27:26.330Z,25.81
2019-04-04T07:28:26.383Z,25.07
2019-04-04T07:29:26.195Z,24.52
2019-04-04T07:30:28.535Z,23.00
2019-04-04T07:31:26.172Z,21.98
2019-04-04T07:32:26.152Z,20.80
2019-04-04T07:33:26.259Z,21.30
2019-04-04T07:34:26.156Z,21.31
2019-04-04T07:35:26.138Z,23.22
2019-04-04T07:36:26.135Z,22.19
2019-04-04T07:37:26.107Z,22.19
2019-04-04T07:38:26.629Z,21.77
2019-04-04T07:39:26.187Z,20.26
2019-04-04T07:40:26.074Z,20.06
2019-04-04T07:41:26.172Z,19.54
2019-04-04T07:42:26.051Z,19.36
2019-04-04T07:43:26.039Z,20.91
2019-04-04T07:44:26.027Z,22.33
2019-04-04T07:45:26.933Z,23.75
2019-04-04T07:46:26.000Z,23.78
2019-04-04T07:47:26.000Z,24.88
2019-04-04T07:48:28.360Z,24.32
2019-04-04T07:49:26.232Z,22.88
2019-04-04T07:50:26.415Z,20.85
2019-04-04T07:51:26.042Z,20.04
2019-04-04T07:52:26.023Z,19.51
2019-04-04T07:53:28.161Z,19.45
2019-04-04T07:54:25.913Z,19.74
2019-04-04T07:55:25.934Z,19.34
2019-04-04T07:56:25.888Z,19.84
2019-04-04T07:57:26.066Z,19.45
2019-04-04T07:58:25.901Z,19.54
2019-04-04T07:59:25.866Z,19.13
2019-04-04T08:00:25.861Z,20.99
2019-04-04T08:01:26.004Z,22.73
2019-04-04T08:02:25.820Z,23.74
2019-04-04T08:03:26.873Z,22.41
2019-04-04T08:04:25.815Z,21.86
2019-04-04T08:05:25.810Z,20.27
2019-04-04T08:06:25.813Z,20.26
2019-04-04T08:07:25.776Z,20.04
2019-04-04T08:08:25.756Z,19.49
2019-04-04T08:09:26.292Z,18.59
2019-04-04T08:10:25.749Z,19.40
2019-04-04T08:11:25.749Z,18.12
2019-04-04T08:12:25.839Z,18.42
2019-04-04T08:13:25.701Z,19.37
2019-04-04T08:14:25.689Z,18.58
2019-04-04T08:15:25.683Z,18.38
2019-04-04T08:16:25.691Z,18.68
2019-04-04T08:17:25.673Z,18.07
2019-04-04T08:18:25.770Z,16.96
2019-04-04T08:19:25.826Z,16.56
2019-04-04T08:20:25.630Z,16.77
2019-04-04T08:21:25.643Z,17.37
2019-04-04T08:22:25.618Z,16.89
2019-04-04T08:23:25.750Z,17.66
2019-04-04T08:24:25.722Z,17.29
2019-04-04T08:25:25.747Z,18.49
2019-04-04T08:26:25.739Z,18.62
2019-04-04T08:27:25.573Z,17.93
2019-04-04T08:28:25.540Z,19.18
2019-04-04T08:29:25.547Z,18.07
2019-04-04T08:30:25.549Z,17.18
2019-04-04T08:31:25.519Z,16.99
2019-04-04T08:32:25.606Z,17.36
2019-04-04T08:33:25.503Z,17.29
2019-04-04T08:34:25.495Z,18.41
2019-04-04T08:35:25.485Z,19.36
2019-04-04T08:36:25.458Z,20.06
2019-04-04T08:37:25.560Z,20.98
2019-04-04T08:38:25.438Z,22.44
2019-04-04T08:39:25.433Z,24.78
2019-04-04T08:40:25.467Z,24.67
2019-04-04T08:41:25.422Z,24.96
2019-04-04T08:42:25.392Z,23.43
2019-04-04T08:43:25.506Z,22.51
2019-04-04T08:44:25.411Z,21.75
2019-04-04T08:45:25.385Z,19.60
2019-04-04T08:46:25.354Z,18.18
2019-04-04T08:47:25.385Z,16.96
2019-04-04T08:48:25.329Z,16.98
2019-04-04T08:49:25.437Z,17.69
2019-04-04T08:50:25.314Z,17.00
2019-04-04T08:51:25.298Z,17.29
2019-04-04T08:52:25.304Z,17.99
2019-04-04T08:53:25.276Z,19.41
2019-04-04T08:54:25.381Z,18.65
2019-04-04T08:55:25.358Z,18.23
2019-04-04T08:56:25.255Z,18.08
2019-04-04T08:57:25.332Z,18.79
2019-04-04T08:58:25.241Z,18.59
2019-04-04T08:59:25.288Z,17.97
2019-04-04T09:00:25.198Z,15.97
2019-04-04T09:01:25.293Z,15.26
2019-04-04T09:02:25.182Z,15.05
2019-04-04T09:03:25.180Z,15.14
2019-04-04T09:04:25.190Z,14.75
2019-04-04T09:05:25.148Z,14.64
2019-04-04T09:06:25.252Z,13.85
2019-04-04T09:07:25.233Z,13.65
2019-04-04T09:08:25.125Z,13.56
2019-04-04T09:09:25.173Z,14.15
2019-04-04T09:10:25.120Z,13.56
2019-04-04T09:11:25.083Z,13.45
2019-04-04T09:12:25.229Z,14.37
2019-04-04T09:13:25.080Z,15.80
2019-04-04T09:14:25.255Z,16.88
2019-04-04T09:15:25.084Z,17.12
2019-04-04T09:16:25.057Z,18.41
2019-04-04T09:17:25.018Z,17.79
2019-04-04T09:18:25.042Z,17.41
2019-04-04T09:19:25.012Z,17.10
2019-04-04T09:20:25.104Z,17.08
2019-04-04T09:21:25.011Z,15.58
2019-04-04T09:22:24.982Z,16.17
2019-04-04T09:23:24.985Z,16.00
2019-04-04T09:24:24.985Z,16.19
2019-04-04T09:25:25.237Z,16.26
2019-04-04T09:26:24.980Z,15.07
2019-04-04T09:27:24.959Z,14.65
2019-04-04T09:28:24.946Z,13.85
2019-04-04T09:29:24.971Z,12.87
2019-04-04T09:30:24.907Z,13.25
2019-04-04T09:31:25.262Z,14.28
2019-04-04T09:32:24.893Z,15.07
2019-04-04T09:33:24.923Z,14.48
2019-04-04T09:34:24.850Z,15.27
2019-04-04T09:35:24.831Z,14.87
2019-04-04T09:36:24.829Z,14.65
2019-04-04T09:37:25.246Z,14.17
2019-04-04T09:38:24.810Z,14.18
2019-04-04T09:39:24.812Z,15.48
2019-04-04T09:40:24.788Z,15.68
2019-04-04T09:41:24.773Z,15.87
2019-04-04T09:42:24.773Z,14.39
2019-04-04T09:43:24.861Z,14.59
2019-04-04T09:44:24.769Z,15.48
2019-04-04T09:45:24.742Z,16.05
2019-04-04T09:46:24.739Z,15.25
2019-04-04T09:47:25.428Z,14.95
2019-04-04T09:48:24.713Z,14.04
2019-04-04T09:49:24.821Z,12.87
2019-04-04T09:50:24.683Z,13.06
2019-04-04T09:51:24.685Z,12.97
2019-04-04T09:52:24.686Z,14.19
2019-04-04T09:53:24.686Z,16.41
2019-04-04T09:54:31.565Z,18.00
2019-04-04T09:55:25.631Z,17.68
2019-04-04T09:56:24.847Z,16.20
2019-04-04T09:57:24.618Z,16.11
2019-04-04T09:58:24.610Z,15.61
2019-04-04T09:59:24.606Z,16.27
2019-04-04T10:00:24.724Z,15.08
2019-04-04T10:01:24.575Z,15.06
2019-04-04T10:02:24.647Z,15.08
2019-04-04T10:03:25.534Z,17.19
2019-04-04T10:04:24.554Z,17.22
2019-04-04T10:05:24.529Z,17.22
2019-04-04T10:06:24.535Z,18.84
2019-04-04T10:07:25.268Z,19.45
2019-04-04T10:08:24.510Z,18.95
2019-04-04T10:09:24.494Z,18.55
2019-04-04T10:10:24.485Z,19.34
2019-04-04T10:11:24.470Z,18.72
2019-04-04T10:12:24.647Z,17.62
2019-04-04T10:13:24.450Z,18.62
2019-04-04T10:14:24.619Z,18.43
2019-04-04T10:15:24.436Z,18.43
2019-04-04T10:16:24.444Z,17.99
2019-04-04T10:17:24.405Z,15.80
2019-04-04T10:18:24.410Z,15.37
2019-04-04T10:19:24.397Z,14.85
2019-04-04T10:20:24.591Z,14.89
2019-04-04T10:21:24.376Z,15.31
2019-04-04T10:22:24.371Z,16.38
2019-04-04T10:23:24.355Z,16.19
2019-04-04T10:24:24.893Z,15.20
2019-04-04T10:25:24.491Z,17.22
2019-04-04T10:26:24.342Z,18.62
2019-04-04T10:27:24.317Z,18.93
2019-04-04T10:28:24.324Z,17.61
2019-04-04T10:29:24.297Z,17.63
2019-04-04T10:30:24.285Z,17.41
2019-04-04T10:31:24.404Z,17.29
2019-04-04T10:32:24.257Z,17.32
2019-04-04T10:33:24.258Z,18.74
2019-04-04T10:34:24.233Z,18.65
2019-04-04T10:35:24.226Z,18.94
2019-04-04T10:36:24.223Z,19.20
2019-04-04T10:37:24.396Z,17.97
2019-04-04T10:38:24.874Z,16.77
2019-04-04T10:39:28.961Z,15.87
2019-04-04T10:40:25.204Z,15.47
2019-04-04T10:41:24.167Z,15.80
2019-04-04T10:42:24.266Z,17.49
2019-04-04T10:43:24.252Z,17.62
2019-04-04T10:44:24.242Z,17.49
2019-04-04T10:45:24.596Z,17.37
2019-04-04T10:46:24.183Z,15.70
2019-04-04T10:47:24.106Z,16.19
2019-04-04T10:48:24.102Z,16.11
2019-04-04T10:49:24.210Z,16.20
2019-04-04T10:50:24.076Z,17.41
2019-04-04T10:51:24.083Z,19.39
2019-04-04T10:52:24.052Z,18.70
2019-04-04T10:53:24.056Z,17.90
2019-04-04T10:54:24.179Z,17.27
2019-04-04T10:55:24.029Z,15.77
2019-04-04T10:56:24.023Z,15.27
2019-04-04T10:57:24.117Z,15.50
2019-04-04T10:58:24.111Z,17.43
2019-04-04T10:59:23.991Z,18.95
2019-04-04T11:00:23.983Z,19.64
2019-04-04T11:01:23.996Z,18.93
2019-04-04T11:02:23.962Z,18.60
2019-04-04T11:03:24.148Z,17.59
2019-04-04T11:04:23.942Z,17.20
2019-04-04T11:05:23.928Z,17.51
2019-04-04T11:06:23.923Z,17.10
2019-04-04T11:07:23.903Z,18.09
2019-04-04T11:08:23.901Z,17.40
2019-04-04T11:09:24.097Z,17.21
2019-04-04T11:10:23.882Z,18.29
2019-04-04T11:11:23.915Z,17.10
2019-04-04T11:12:23.884Z,17.61
2019-04-04T11:13:33.393Z,18.01
2019-04-04T11:14:25.419Z,17.00
2019-04-04T11:15:23.832Z,17.09
2019-04-04T11:16:30.008Z,16.91
2019-04-04T11:17:24.837Z,16.10
2019-04-04T11:18:23.813Z,16.13
2019-04-04T11:19:30.955Z,18.87
2019-04-04T11:20:25.012Z,19.80
2019-04-04T11:21:23.771Z,20.12
2019-04-04T11:22:23.783Z,21.50
2019-04-04T11:23:23.748Z,20.57
2019-04-04T11:24:23.739Z,20.15
2019-04-04T11:25:29.337Z,18.84
2019-04-04T11:26:23.746Z,18.93
2019-04-04T11:27:23.816Z,18.41
2019-04-04T11:28:23.742Z,16.91
2019-04-04T11:29:23.699Z,17.10
2019-04-04T11:30:23.697Z,16.91
2019-04-04T11:31:23.661Z,17.00
2019-04-04T11:32:23.659Z,17.32
2019-04-04T11:33:23.788Z,17.65
2019-04-04T11:34:23.641Z,18.87
2019-04-04T11:35:23.647Z,19.06
2019-04-04T11:36:23.629Z,18.86
2019-04-04T11:37:23.604Z,19.37
2019-04-04T11:38:23.607Z,18.55
2019-04-04T11:39:23.670Z,19.37
2019-04-04T11:40:23.583Z,19.16
2019-04-04T11:41:23.575Z,19.36
2019-04-04T11:42:23.577Z,18.88
2019-04-04T11:43:23.547Z,19.38
2019-04-04T11:44:23.537Z,19.30
2019-04-04T11:45:24.333Z,19.06
2019-04-04T11:46:23.521Z,18.13
2019-04-04T11:47:23.535Z,18.44
2019-04-04T11:48:23.517Z,18.42
2019-04-04T11:49:23.513Z,18.42
2019-04-04T11:50:23.476Z,18.04
2019-04-04T11:51:23.623Z,17.72
2019-04-04T11:52:23.460Z,17.72
2019-04-04T11:53:24.010Z,18.19
2019-04-04T11:54:23.464Z,16.90
2019-04-04T11:55:23.429Z,17.32
2019-04-04T11:56:23.496Z,18.62
2019-04-04T11:57:24.011Z,16.75
2019-04-04T11:58:23.434Z,16.23
2019-04-04T11:59:23.411Z,15.83
2019-04-04T12:00:23.399Z,16.31
2019-04-04T12:01:23.372Z,17.32
2019-04-04T12:02:23.545Z,17.63
2019-04-04T12:03:23.358Z,17.12
2019-04-04T12:04:23.358Z,16.91
2019-04-04T12:05:23.340Z,17.49
2019-04-04T12:06:23.368Z,17.32
2019-04-04T12:07:23.435Z,17.31
2019-04-04T12:08:23.334Z,17.41
2019-04-04T12:09:23.297Z,17.31
2019-04-04T12:10:23.295Z,17.41
2019-04-04T12:11:23.288Z,17.71
2019-04-04T12:12:23.371Z,17.50
2019-04-04T12:13:23.262Z,16.93
2019-04-04T12:14:23.258Z,17.66
2019-04-04T12:15:23.248Z,18.88
2019-04-04T12:16:23.227Z,20.18
2019-04-04T12:17:23.238Z,19.77
2019-04-04T12:18:23.321Z,19.69
2019-04-04T12:19:23.257Z,20.14
2019-04-04T12:20:23.196Z,22.28
2019-04-04T12:21:23.207Z,23.43
2019-04-04T12:22:23.177Z,23.85
2019-04-04T12:23:23.163Z,24.65
2019-04-04T12:24:23.268Z,25.06
2019-04-04T12:25:23.148Z,25.55
2019-04-04T12:26:23.150Z,24.93
2019-04-04T12:27:23.124Z,25.04
2019-04-04T12:28:23.130Z,24.60
2019-04-04T12:29:23.096Z,24.38
2019-04-04T12:30:23.218Z,22.97
2019-04-04T12:31:23.094Z,22.55
2019-04-04T12:32:23.239Z,21.33
2019-04-04T12:33:23.055Z,21.11
2019-04-04T12:34:23.138Z,21.53
2019-04-04T12:35:23.038Z,22.34
2019-04-04T12:36:24.814Z,21.84
2019-04-04T12:37:23.030Z,21.44
2019-04-04T12:38:23.370Z,20.80
2019-04-04T12:39:23.016Z,20.00
2019-04-04T12:40:23.016Z,19.90
2019-04-04T12:41:23.022Z,20.65
2019-04-04T12:42:23.019Z,21.12
2019-04-04T12:43:23.004Z,21.13
2019-04-04T12:44:23.245Z,21.53
2019-04-04T12:45:22.937Z,21.01
2019-04-04T12:46:22.977Z,20.40
2019-04-04T12:47:22.918Z,20.86
2019-04-04T12:48:22.901Z,19.26
2019-04-04T12:49:22.899Z,19.14
2019-04-04T12:50:23.178Z,18.94
2019-04-04T12:51:22.879Z,19.34
2019-04-04T12:52:22.879Z,18.26